Time,TemperatureF,DewpointF,PressureIn,WindDirection,WindDirectionDegrees,WindSpeedMPH,WindSpeedGustMPH,Humidity,HourlyPrecipIn,Conditions,Clouds,dailyrainin,SoftwareType,DateUTC
2015-08-01 00:13:00,72.0,47.0,-100.00,SSE,167,7.0,12.0,41,-99.99,,,-99.99,,2015-08-01 06:13:00,
2015-08-01 00:24:00,72.0,47.0,-100.00,SSE,167,7.0,12.0,41,-99.99,,,-99.99,,2015-08-01 06:24:00,
2015-08-01 00:33:00,72.0,47.0,-100.00,SSE,167,7.0,12.0,41,-99.99,,,-99.99,,2015-08-01 06:33:00,
2015-08-01 00:43:00,72.0,47.0,-100.00,SSE,167,7.0,12.0,41,-99.99,,,-99.99,,2015-08-01 06:43:00,
2015-08-01 00:51:00,72.0,48.0,-100.00,South,174,10.0,16.0,43,-99.99,,,-99.99,,2015-08-01 06:51:00,
2015-08-01 01:12:00,72.0,48.0,-100.00,South,174,10.0,16.0,43,-99.99,,,-99.99,,2015-08-01 07:12:00,
2015-08-01 01:23:00,72.0,48.0,-100.00,South,174,10.0,16.0,43,-99.99,,,-99.99,,2015-08-01 07:23:00,
2015-08-01 01:33:00,72.0,48.0,-100.00,South,174,10.0,16.0,43,-99.99,,,-99.99,,2015-08-01 07:33:00,
2015-08-01 01:43:00,72.0,48.0,-100.00,South,174,10.0,16.0,43,-99.99,,,-99.99,,2015-08-01 07:43:00,
2015-08-01 01:51:00,71.0,48.0,-100.00,South,175,11.0,18.0,44,-99.99,,,-99.99,,2015-08-01 07:51:00,
2015-08-01 02:12:00,71.0,48.0,-100.00,South,175,11.0,18.0,44,-99.99,,,-99.99,,2015-08-01 08:12:00,
2015-08-01 02:23:00,71.0,48.0,-100.00,South,175,11.0,18.0,44,-99.99,,,-99.99,,2015-08-01 08:23:00,
2015-08-01 02:33:00,71.0,48.0,-100.00,South,175,11.0,18.0,44,-99.99,,,-99.99,,2015-08-01 08:33:00,
2015-08-01 02:43:00,71.0,48.0,-100.00,South,175,11.0,18.0,44,-99.99,,,-99.99,,2015-08-01 08:43:00,
2015-08-01 03:12:00,70.0,49.0,-100.00,South,175,13.0,17.0,48,-99.99,,,-99.99,,2015-08-01 09:12:00,
2015-08-01 03:23:00,70.0,49.0,-100.00,South,175,13.0,17.0,48,-99.99,,,-99.99,,2015-08-01 09:23:00,
2015-08-01 03:33:00,70.0,49.0,-100.00,South,175,13.0,17.0,48,-99.99,,,-99.99,,2015-08-01 09:33:00,
2015-08-01 03:43:00,70.0,49.0,-100.00,South,175,13.0,17.0,48,-99.99,,,-99.99,,2015-08-01 09:43:00,
2015-08-01 03:51:00,66.0,49.0,-100.00,WSW,237,4.0,14.0,55,-99.99,,,-99.99,,2015-08-01 09:51:00,
2015-08-01 04:12:00,66.0,49.0,-100.00,WSW,237,4.0,14.0,55,-99.99,,,-99.99,,2015-08-01 10:12:00,
2015-08-01 04:23:00,66.0,49.0,-100.00,WSW,237,4.0,14.0,55,-99.99,,,-99.99,,2015-08-01 10:23:00,
2015-08-01 04:33:00,66.0,49.0,-100.00,WSW,237,4.0,14.0,55,-99.99,,,-99.99,,2015-08-01 10:33:00,
2015-08-01 04:44:00,66.0,49.0,-100.00,WSW,237,4.0,14.0,55,-99.99,,,-99.99,,2015-08-01 10:44:00,
2015-08-01 04:51:00,65.0,48.0,-100.00,South,184,7.0,9.0,55,-99.99,,,-99.99,,2015-08-01 10:51:00,
2015-08-01 05:13:00,65.0,48.0,-100.00,South,184,7.0,9.0,55,-99.99,,,-99.99,,2015-08-01 11:13:00,
2015-08-01 05:24:00,65.0,48.0,-100.00,South,184,7.0,9.0,55,-99.99,,,-99.99,,2015-08-01 11:24:00,
2015-08-01 05:34:00,65.0,48.0,-100.00,South,184,7.0,9.0,55,-99.99,,,-99.99,,2015-08-01 11:34:00,
2015-08-01 05:43:00,65.0,48.0,-100.00,South,184,7.0,9.0,55,-99.99,,,-99.99,,2015-08-01 11:43:00,
2015-08-01 05:51:00,64.0,50.0,-100.00,South,182,4.0,8.0,60,-99.99,,,-99.99,,2015-08-01 11:51:00,
2015-08-01 06:13:00,64.0,50.0,-100.00,South,182,4.0,8.0,60,-99.99,,,-99.99,,2015-08-01 12:13:00,
2015-08-01 06:24:00,64.0,50.0,-100.00,South,182,4.0,-999.0,60,-99.99,,,-99.99,,2015-08-01 12:24:00,
2015-08-01 06:33:00,64.0,50.0,-100.00,South,182,4.0,8.0,60,-99.99,,,-99.99,,2015-08-01 12:33:00,
2015-08-01 06:44:00,64.0,50.0,-100.00,South,182,4.0,8.0,60,-99.99,,,-99.99,,2015-08-01 12:44:00,
2015-08-01 06:51:00,68.0,46.0,-100.00,NW,312,3.0,6.0,46,-99.99,,,-99.99,,2015-08-01 12:51:00,
2015-08-01 07:13:00,68.0,46.0,-100.00,NW,312,3.0,6.0,46,-99.99,,,-99.99,,2015-08-01 13:13:00,
2015-08-01 07:23:00,68.0,46.0,-100.00,NW,312,3.0,6.0,46,-99.99,,,-99.99,,2015-08-01 13:23:00,
2015-08-01 07:34:00,68.0,46.0,-100.00,NW,312,3.0,6.0,46,-99.99,,,-99.99,,2015-08-01 13:34:00,
2015-08-01 07:43:00,68.0,46.0,-100.00,NW,312,3.0,6.0,46,-99.99,,,-99.99,,2015-08-01 13:43:00,
2015-08-01 07:51:00,70.0,43.0,-100.00,NNW,338,4.0,8.0,38,-99.99,,,-99.99,,2015-08-01 13:51:00,
2015-08-01 08:12:00,70.0,43.0,-100.00,NNW,338,4.0,8.0,38,-99.99,,,-99.99,,2015-08-01 14:12:00,
2015-08-01 08:23:00,70.0,43.0,-100.00,NNW,338,4.0,8.0,38,-99.99,,,-99.99,,2015-08-01 14:23:00,
2015-08-01 08:33:00,70.0,43.0,-100.00,NNW,338,4.0,8.0,38,-99.99,,,-99.99,,2015-08-01 14:33:00,
2015-08-01 08:43:00,70.0,43.0,-100.00,NNW,338,4.0,8.0,38,-99.99,,,-99.99,,2015-08-01 14:43:00,
2015-08-01 08:51:00,78.0,41.0,-100.00,NW,317,2.0,7.0,27,-99.99,,,-99.99,,2015-08-01 14:51:00,
2015-08-01 09:12:00,78.0,41.0,-100.00,NW,317,2.0,7.0,27,-99.99,,,-99.99,,2015-08-01 15:12:00,
2015-08-01 09:23:00,78.0,41.0,-100.00,NW,317,2.0,7.0,27,-99.99,,,-99.99,,2015-08-01 15:23:00,
2015-08-01 09:34:00,78.0,41.0,-100.00,NW,317,2.0,7.0,27,-99.99,,,-99.99,,2015-08-01 15:34:00,
2015-08-01 09:43:00,78.0,41.0,-100.00,NW,317,2.0,7.0,27,-99.99,,,-99.99,,2015-08-01 15:43:00,
2015-08-01 09:51:00,83.0,39.0,-100.00,NW,325,3.0,7.0,21,-99.99,,,-99.99,,2015-08-01 15:51:00,
2015-08-01 10:13:00,83.0,39.0,-100.00,NW,325,3.0,7.0,21,-99.99,,,-99.99,,2015-08-01 16:13:00,
2015-08-01 10:23:00,83.0,39.0,-100.00,NW,325,3.0,7.0,21,-99.99,,,-99.99,,2015-08-01 16:23:00,
2015-08-01 10:33:00,83.0,39.0,-100.00,NW,325,3.0,7.0,21,-99.99,,,-99.99,,2015-08-01 16:33:00,
2015-08-01 10:43:00,83.0,39.0,-100.00,NW,325,3.0,7.0,21,-99.99,,,-99.99,,2015-08-01 16:43:00,
2015-08-01 11:51:00,89.0,23.0,-100.00,North,352,6.0,16.0,9,-99.99,,,-99.99,,2015-08-01 17:51:00,
2015-08-01 13:33:00,91.0,22.0,-100.00,NW,308,9.0,21.0,8,-99.99,,,-99.99,,2015-08-01 19:33:00,
2015-08-01 13:44:00,91.0,22.0,-100.00,NW,308,9.0,21.0,8,-99.99,,,-99.99,,2015-08-01 19:44:00,
2015-08-01 16:13:00,92.0,19.0,-100.00,NNW,333,13.0,28.0,7,-99.99,,,-99.99,,2015-08-01 22:13:00,
2015-08-01 16:23:00,92.0,19.0,-100.00,NNW,333,13.0,28.0,7,-99.99,,,-99.99,,2015-08-01 22:23:00,
2015-08-01 16:34:00,92.0,19.0,-100.00,NNW,333,13.0,28.0,7,-99.99,,,-99.99,,2015-08-01 22:34:00,
2015-08-01 16:43:00,92.0,19.0,-100.00,NNW,333,13.0,28.0,7,-99.99,,,-99.99,,2015-08-01 22:43:00,